METAR Data
IDs: Format: Raw Decoded Include TAF

Data at: 1352 UTC 26 Feb 2021

LOWI 261320Z VRB01KT CAVOK 17/M03 Q1027 NOSIG